Time,TemperatureF,DewpointF,PressureIn,WindDirection,WindDirectionDegrees,WindSpeedMPH,WindSpeedGustMPH,Humidity,HourlyPrecipIn,Conditions,Clouds,dailyrainin,SoftwareType,DateUTC
2017-12-17 00:00:00,40.5,16.3,30.03,North,353,0.0,0.0,37,0.00,,SKC,0.00,VWS V15.00,2017-12-17 08:00:00,
2017-12-17 00:05:00,40.6,16.4,30.03,North,353,0.0,0.0,37,0.00,,SKC,0.00,VWS V15.00,2017-12-17 08:05:00,
2017-12-17 00:13:00,41.0,16.1,30.03,North,353,0.0,0.0,36,0.00,,SKC,0.00,VWS V15.00,2017-12-17 08:13:00,
2017-12-17 00:20:00,41.0,16.1,30.03,North,353,0.0,0.0,36,0.00,,SKC,0.00,VWS V15.00,2017-12-17 08:20:00,
2017-12-17 00:26:00,40.6,16.4,30.03,North,353,0.0,0.0,37,0.00,,SKC,0.00,VWS V15.00,2017-12-17 08:26:00,
2017-12-17 00:31:00,40.5,16.3,30.03,North,353,0.0,0.0,37,0.00,,SKC,0.00,VWS V15.00,2017-12-17 08:31:00,
2017-12-17 00:36:00,40.5,16.3,30.03,North,353,0.0,0.0,37,0.00,,SKC,0.00,VWS V15.00,2017-12-17 08:36:00,
2017-12-17 00:42:00,40.8,16.6,30.03,North,353,0.0,0.0,37,0.00,,SKC,0.00,VWS V15.00,2017-12-17 08:42:00,
2017-12-17 00:48:00,40.6,15.8,30.03,North,353,0.0,0.0,36,0.00,,SKC,0.00,VWS V15.00,2017-12-17 08:48:00,
2017-12-17 00:55:00,40.5,15.6,30.03,North,353,0.0,0.0,36,0.00,,SKC,0.00,VWS V15.00,2017-12-17 08:55:00,
2017-12-17 01:00:00,40.5,15.6,30.03,North,353,0.0,0.0,36,0.00,,SKC,0.00,VWS V15.00,2017-12-17 09:00:00,
2017-12-17 01:05:00,40.6,15.8,30.03,North,353,0.0,0.0,36,0.00,,SKC,0.00,VWS V15.00,2017-12-17 09:05:00,
2017-12-17 01:08:00,40.6,15.8,30.03,North,353,0.0,0.0,36,0.00,,SKC,0.00,VWS V15.00,2017-12-17 09:08:00,
2017-12-17 01:14:00,40.6,15.8,30.03,ENE,61,0.0,5.4,36,0.00,,SKC,0.00,VWS V15.00,2017-12-17 09:14:00,
2017-12-17 01:16:00,40.5,15.6,30.03,ENE,61,0.0,0.0,36,0.00,,SKC,0.00,VWS V15.00,2017-12-17 09:16:00,
2017-12-17 01:22:00,39.7,15.6,30.03,ENE,61,0.0,0.0,37,0.00,,SKC,0.00,VWS V15.00,2017-12-17 09:22:00,
2017-12-17 01:27:00,39.4,15.3,30.03,ENE,61,0.0,0.0,37,0.00,,SKC,0.00,VWS V15.00,2017-12-17 09:27:00,
2017-12-17 01:32:00,39.0,15.6,30.03,ENE,61,0.0,0.0,38,0.00,,SKC,0.00,VWS V15.00,2017-12-17 09:32:00,
2017-12-17 01:37:00,38.7,15.3,30.03,ENE,61,0.0,0.0,38,0.00,,SKC,0.00,VWS V15.00,2017-12-17 09:37:00,
2017-12-17 01:42:00,38.5,15.7,30.03,North,349,0.0,4.5,39,0.00,,SKC,0.00,VWS V15.00,2017-12-17 09:42:00,
2017-12-17 01:48:00,38.5,15.7,30.03,North,350,0.0,0.0,39,0.00,,SKC,0.00,VWS V15.00,2017-12-17 09:48:00,
2017-12-17 01:53:00,38.5,15.7,30.03,North,349,4.5,6.3,39,0.00,,SKC,0.00,VWS V15.00,2017-12-17 09:53:00,
2017-12-17 01:58:00,38.5,15.7,30.03,North,349,5.4,6.3,39,0.00,,SKC,0.00,VWS V15.00,2017-12-17 09:58:00,
2017-12-17 02:04:00,38.7,15.9,30.03,NNW,341,6.3,8.1,39,0.00,,SKC,0.00,VWS V15.00,2017-12-17 10:04:00,
2017-12-17 02:09:00,38.8,16.0,30.03,North,349,4.5,5.4,39,0.00,,SKC,0.00,VWS V15.00,2017-12-17 10:09:00,
2017-12-17 02:15:00,39.2,16.3,30.03,North,0,4.5,5.4,39,0.00,,SKC,0.00,VWS V15.00,2017-12-17 10:15:00,
2017-12-17 02:21:00,39.4,16.5,30.03,North,0,0.0,0.0,39,0.00,,SKC,0.00,VWS V15.00,2017-12-17 10:21:00,
2017-12-17 02:25:00,39.6,16.7,30.03,North,0,0.0,0.0,39,0.00,,SKC,0.00,VWS V15.00,2017-12-17 10:25:00,
2017-12-17 02:31:00,39.7,16.2,30.03,North,0,0.0,0.0,38,0.00,,SKC,0.00,VWS V15.00,2017-12-17 10:31:00,
2017-12-17 02:37:00,39.7,16.2,30.03,North,0,0.0,0.0,38,0.00,,SKC,0.00,VWS V15.00,2017-12-17 10:37:00,
2017-12-17 02:42:00,39.7,16.2,30.03,North,0,0.0,0.0,38,0.00,,SKC,0.00,VWS V15.00,2017-12-17 10:42:00,
2017-12-17 02:48:00,39.7,16.2,30.03,North,0,0.0,0.0,38,0.00,,SKC,0.00,VWS V15.00,2017-12-17 10:48:00,
2017-12-17 02:54:00,39.6,16.7,30.03,North,0,0.0,0.0,39,0.00,,SKC,0.00,VWS V15.00,2017-12-17 10:54:00,
2017-12-17 02:59:00,39.2,16.3,30.03,North,0,0.0,0.0,39,0.00,,SKC,0.00,VWS V15.00,2017-12-17 10:59:00,
2017-12-17 03:04:00,38.7,15.9,30.03,North,0,4.5,6.3,39,0.00,,SKC,0.00,VWS V15.00,2017-12-17 11:04:00,
2017-12-17 03:13:00,38.5,15.7,30.03,North,0,0.0,0.0,39,0.00,,SKC,0.00,VWS V15.00,2017-12-17 11:13:00,
2017-12-17 03:19:00,38.5,15.7,30.03,North,0,0.0,0.0,39,0.00,,SKC,0.00,VWS V15.00,2017-12-17 11:19:00,
2017-12-17 03:24:00,38.7,15.9,30.03,North,0,0.0,0.0,39,0.00,,SKC,0.00,VWS V15.00,2017-12-17 11:24:00,
2017-12-17 03:28:00,38.7,15.9,30.03,North,0,0.0,0.0,39,0.00,,SKC,0.00,VWS V15.00,2017-12-17 11:28:00,
2017-12-17 03:33:00,38.8,16.0,30.03,North,0,5.4,6.3,39,0.00,,SKC,0.00,VWS V15.00,2017-12-17 11:33:00,
2017-12-17 03:41:00,39.4,16.5,30.03,North,0,5.4,7.2,39,0.00,,SKC,0.00,VWS V15.00,2017-12-17 11:41:00,
2017-12-17 03:46:00,39.4,16.5,30.03,North,0,0.0,0.0,39,0.00,,SKC,0.00,VWS V15.00,2017-12-17 11:46:00,
2017-12-17 03:52:00,39.4,16.5,30.03,North,0,0.0,0.0,39,0.00,,SKC,0.00,VWS V15.00,2017-12-17 11:52:00,
2017-12-17 03:57:00,39.2,16.3,30.03,North,0,0.0,0.0,39,0.00,,SKC,0.00,VWS V15.00,2017-12-17 11:57:00,
2017-12-17 03:59:00,39.2,16.3,30.03,North,0,0.0,0.0,39,0.00,,SKC,0.00,VWS V15.00,2017-12-17 11:59:00,
2017-12-17 04:05:00,38.8,16.0,30.03,North,0,0.0,4.5,39,0.00,,SKC,0.00,VWS V15.00,2017-12-17 12:05:00,
2017-12-17 04:10:00,38.7,15.9,30.03,North,0,0.0,0.0,39,0.00,,SKC,0.00,VWS V15.00,2017-12-17 12:10:00,
2017-12-17 04:17:00,38.7,15.9,30.03,North,0,0.0,0.0,39,0.00,,SKC,0.00,VWS V15.00,2017-12-17 12:17:00,
2017-12-17 04:19:00,38.8,16.0,30.03,North,0,0.0,0.0,39,0.00,,SKC,0.00,VWS V15.00,2017-12-17 12:19:00,
2017-12-17 04:24:00,39.0,16.2,30.03,North,0,4.5,5.4,39,0.00,,SKC,0.00,VWS V15.00,2017-12-17 12:24:00,
2017-12-17 04:27:00,39.0,16.2,30.03,North,0,5.4,5.4,39,0.00,,SKC,0.00,VWS V15.00,2017-12-17 12:27:00,
2017-12-17 04:31:00,39.0,16.2,30.03,North,0,0.0,0.0,39,0.00,,SKC,0.00,VWS V15.00,2017-12-17 12:31:00,
2017-12-17 04:36:00,38.8,16.0,30.03,North,0,5.4,5.4,39,0.00,,SKC,0.00,VWS V15.00,2017-12-17 12:36:00,
2017-12-17 04:42:00,38.7,15.9,30.03,North,0,5.4,5.4,39,0.00,,SKC,0.00,VWS V15.00,2017-12-17 12:42:00,
2017-12-17 04:47:00,38.5,15.7,30.03,North,353,6.3,7.2,39,0.00,,SKC,0.00,VWS V15.00,2017-12-17 12:47:00,
2017-12-17 04:57:00,38.3,15.5,30.03,North,353,0.0,0.0,39,0.00,,SKC,0.00,VWS V15.00,2017-12-17 12:57:00,
2017-12-17 05:02:00,38.3,15.5,30.03,North,353,5.4,5.4,39,0.00,,SKC,0.00,VWS V15.00,2017-12-17 13:02:00,
2017-12-17 05:06:00,38.3,15.5,30.03,North,353,5.4,5.4,39,0.00,,SKC,0.00,VWS V15.00,2017-12-17 13:06:00,
2017-12-17 05:11:00,38.5,15.7,30.03,North,353,4.5,5.4,39,0.00,,SKC,0.00,VWS V15.00,2017-12-17 13:11:00,
2017-12-17 05:16:00,38.5,15.7,30.03,North,353,0.0,0.0,39,0.00,,SKC,0.00,VWS V15.00,2017-12-17 13:16:00,
2017-12-17 05:21:00,38.8,16.0,30.03,North,353,0.0,0.0,39,0.00,,SKC,0.00,VWS V15.00,2017-12-17 13:21:00,
2017-12-17 05:27:00,38.8,16.0,30.03,NNE,16,0.0,0.0,39,0.00,,SKC,0.00,VWS V15.00,2017-12-17 13:27:00,
2017-12-17 05:32:00,38.8,16.0,30.03,NE,34,0.0,0.0,39,0.00,,SKC,0.00,VWS V15.00,2017-12-17 13:32:00,
2017-12-17 05:37:00,38.8,16.0,30.03,NE,41,0.0,0.0,39,0.00,,SKC,0.00,VWS V15.00,2017-12-17 13:37:00,
2017-12-17 05:43:00,38.7,15.9,30.03,NE,41,0.0,0.0,39,0.00,,SKC,0.00,VWS V15.00,2017-12-17 13:43:00,
2017-12-17 05:49:00,38.8,16.0,30.03,NE,42,0.0,0.0,39,0.00,,SKC,0.00,VWS V15.00,2017-12-17 13:49:00,
2017-12-17 05:55:00,38.7,15.9,30.03,NE,41,0.0,0.0,39,0.00,,SKC,0.00,VWS V15.00,2017-12-17 13:55:00,
2017-12-17 05:56:00,38.7,15.9,30.03,NE,42,0.0,0.0,39,0.00,,SKC,0.00,VWS V15.00,2017-12-17 13:56:00,
2017-12-17 06:01:00,38.5,16.3,30.03,NE,41,0.0,0.0,40,0.00,,SKC,0.00,VWS V15.00,2017-12-17 14:01:00,
2017-12-17 06:06:00,38.5,16.3,30.03,NE,41,0.0,0.0,40,0.00,,SKC,0.00,VWS V15.00,2017-12-17 14:06:00,
2017-12-17 06:09:00,38.5,16.3,30.03,NE,42,0.0,0.0,40,0.00,,SKC,0.00,VWS V15.00,2017-12-17 14:09:00,
2017-12-17 06:15:00,38.5,16.3,30.03,NE,42,0.0,0.0,40,0.00,,SKC,0.00,VWS V15.00,2017-12-17 14:15:00,
2017-12-17 06:20:00,38.5,16.3,30.03,NE,42,0.0,0.0,40,0.00,,SKC,0.00,VWS V15.00,2017-12-17 14:20:00,
2017-12-17 06:25:00,38.5,16.3,30.03,NE,41,0.0,0.0,40,0.00,,SKC,0.00,VWS V15.00,2017-12-17 14:25:00,
2017-12-17 06:29:00,38.5,16.3,30.03,NE,42,0.0,0.0,40,0.00,,SKC,0.00,VWS V15.00,2017-12-17 14:29:00,
2017-12-17 06:34:00,38.3,16.1,30.03,NE,42,0.0,0.0,40,0.00,,SKC,0.00,VWS V15.00,2017-12-17 14:34:00,
2017-12-17 06:39:00,38.3,16.1,30.03,NE,42,0.0,0.0,40,0.00,,SKC,0.00,VWS V15.00,2017-12-17 14:39:00,
2017-12-17 06:44:00,38.3,16.1,30.03,NE,53,0.0,0.0,40,0.00,,SKC,0.00,VWS V15.00,2017-12-17 14:44:00,
2017-12-17 06:49:00,38.1,15.9,30.03,NE,53,0.0,0.0,40,0.00,,SKC,0.00,VWS V15.00,2017-12-17 14:49:00,
2017-12-17 06:54:00,38.1,15.9,30.03,NE,53,0.0,0.0,40,0.00,,SKC,0.00,VWS V15.00,2017-12-17 14:54:00,
2017-12-17 06:59:00,38.1,15.9,30.03,NE,53,0.0,0.0,40,0.00,,SKC,0.00,VWS V15.00,2017-12-17 14:59:00,
2017-12-17 07:04:00,38.3,16.1,30.03,NE,53,0.0,0.0,40,0.00,,SKC,0.00,VWS V15.00,2017-12-17 15:04:00,
2017-12-17 07:09:00,38.3,16.1,30.03,NE,53,0.0,0.0,40,0.00,,SKC,0.00,VWS V15.00,2017-12-17 15:09:00,
2017-12-17 07:14:00,38.1,15.9,30.03,NE,53,0.0,0.0,40,0.00,,SKC,0.00,VWS V15.00,2017-12-17 15:14:00,
2017-12-17 07:21:00,38.3,16.1,30.03,NE,53,0.0,0.0,40,0.00,,SKC,0.00,VWS V15.00,2017-12-17 15:21:00,
2017-12-17 07:29:00,38.7,16.4,30.03,NE,53,0.0,0.0,40,0.00,,SKC,0.00,VWS V15.00,2017-12-17 15:29:00,
2017-12-17 07:40:00,38.7,16.4,30.03,NE,53,0.0,0.0,40,0.00,,SKC,0.00,VWS V15.00,2017-12-17 15:40:00,
2017-12-17 07:46:00,38.8,16.6,30.06,NE,53,0.0,0.0,40,0.00,,SKC,0.00,VWS V15.00,2017-12-17 15:46:00,
2017-12-17 07:53:00,39.0,16.8,30.06,NE,53,0.0,0.0,40,0.00,,SKC,0.00,VWS V15.00,2017-12-17 15:53:00,
2017-12-17 07:58:00,38.8,16.6,30.06,NE,53,0.0,0.0,40,0.00,,SKC,0.00,VWS V15.00,2017-12-17 15:58:00,
2017-12-17 08:03:00,38.8,16.6,30.06,NE,53,0.0,0.0,40,0.00,,SKC,0.00,VWS V15.00,2017-12-17 16:03:00,
2017-12-17 08:08:00,38.8,17.2,30.06,NE,53,0.0,0.0,41,0.00,,SKC,0.00,VWS V15.00,2017-12-17 16:08:00,
2017-12-17 08:13:00,38.8,17.2,30.06,NE,53,0.0,0.0,41,0.00,,SKC,0.00,VWS V15.00,2017-12-17 16:13:00,
2017-12-17 08:19:00,38.8,17.2,30.06,NE,53,0.0,0.0,41,0.00,,SKC,0.00,VWS V15.00,2017-12-17 16:19:00,
2017-12-17 08:24:00,39.0,17.3,30.06,NE,53,0.0,0.0,41,0.00,,SKC,0.00,VWS V15.00,2017-12-17 16:24:00,
2017-12-17 08:30:00,39.4,17.7,30.06,NE,52,0.0,0.0,41,0.00,,SKC,0.00,VWS V15.00,2017-12-17 16:30:00,
2017-12-17 08:35:00,39.4,18.2,30.06,NE,52,0.0,0.0,42,0.00,,SKC,0.00,VWS V15.00,2017-12-17 16:35:00,
2017-12-17 08:39:00,39.4,18.2,30.06,NE,52,0.0,0.0,42,0.00,,SKC,0.00,VWS V15.00,2017-12-17 16:39:00,
2017-12-17 08:45:00,39.4,18.2,30.06,NE,52,0.0,0.0,42,0.00,,SKC,0.00,VWS V15.00,2017-12-17 16:45:00,
2017-12-17 08:48:00,39.4,18.2,30.06,NE,52,0.0,0.0,42,0.00,,SKC,0.00,VWS V15.00,2017-12-17 16:48:00,
2017-12-17 08:53:00,39.7,19.1,30.06,NE,52,0.0,0.0,43,0.00,,SKC,0.00,VWS V15.00,2017-12-17 16:53:00,
2017-12-17 08:58:00,40.1,19.4,30.09,NE,52,0.0,0.0,43,0.00,,SKC,0.00,VWS V15.00,2017-12-17 16:58:00,
2017-12-17 09:03:00,40.5,19.7,30.09,NE,52,0.0,0.0,43,0.00,,SKC,0.00,VWS V15.00,2017-12-17 17:03:00,
2017-12-17 09:09:00,41.0,20.8,30.09,NE,52,0.0,0.0,44,0.00,,SKC,0.00,VWS V15.00,2017-12-17 17:09:00,
2017-12-17 09:14:00,41.4,20.6,30.09,NE,52,0.0,0.0,43,0.00,,SKC,0.00,VWS V15.00,2017-12-17 17:14:00,
2017-12-17 09:16:00,41.5,20.7,30.09,NE,52,0.0,0.0,43,0.00,,SKC,0.00,VWS V15.00,2017-12-17 17:16:00,
2017-12-17 09:22:00,42.1,20.7,30.09,NE,52,0.0,0.0,42,0.00,,SKC,0.00,VWS V15.00,2017-12-17 17:22:00,
2017-12-17 09:24:00,42.4,21.0,30.09,NE,52,0.0,0.0,42,0.00,,SKC,0.00,VWS V15.00,2017-12-17 17:24:00,
2017-12-17 09:29:00,43.0,20.9,30.09,NE,52,0.0,0.0,41,0.00,,SKC,0.00,VWS V15.00,2017-12-17 17:29:00,
2017-12-17 09:34:00,43.5,21.4,30.09,NE,52,0.0,0.0,41,0.00,,SKC,0.00,VWS V15.00,2017-12-17 17:34:00,
2017-12-17 09:39:00,44.4,21.6,30.09,NE,52,0.0,0.0,40,0.00,,SKC,0.00,VWS V15.00,2017-12-17 17:39:00,
2017-12-17 09:40:00,44.6,21.8,30.09,NE,52,0.0,0.0,40,0.00,,SKC,0.00,VWS V15.00,2017-12-17 17:40:00,
2017-12-17 09:46:00,45.9,22.3,30.09,North,0,4.5,5.4,39,0.00,,SKC,0.00,VWS V15.00,2017-12-17 17:46:00,
2017-12-17 09:52:00,46.8,22.5,30.09,North,0,0.0,0.0,38,0.00,,SKC,0.00,VWS V15.00,2017-12-17 17:52:00,
2017-12-17 09:53:00,47.1,22.8,30.09,North,0,0.0,0.0,38,0.00,,SKC,0.00,VWS V15.00,2017-12-17 17:53:00,
2017-12-17 09:58:00,47.7,22.7,30.09,North,0,0.0,0.0,37,0.00,,SKC,0.00,VWS V15.00,2017-12-17 17:58:00,
2017-12-17 10:03:00,48.0,23.0,30.09,North,0,0.0,0.0,37,0.00,,SKC,0.00,VWS V15.00,2017-12-17 18:03:00,
2017-12-17 10:08:00,48.0,23.0,30.09,North,0,0.0,0.0,37,0.00,,SKC,0.00,VWS V15.00,2017-12-17 18:08:00,
2017-12-17 10:13:00,47.8,23.5,30.09,North,0,0.0,0.0,38,0.00,,SKC,0.00,VWS V15.00,2017-12-17 18:13:00,
2017-12-17 10:18:00,47.5,23.2,30.09,North,0,0.0,0.0,38,0.00,,SKC,0.00,VWS V15.00,2017-12-17 18:18:00,
2017-12-17 10:23:00,47.5,23.2,30.09,North,0,0.0,0.0,38,0.00,,SKC,0.00,VWS V15.00,2017-12-17 18:23:00,
2017-12-17 10:28:00,47.8,23.5,30.09,North,0,0.0,0.0,38,0.00,,SKC,0.00,VWS V15.00,2017-12-17 18:28:00,
2017-12-17 10:33:00,48.6,23.5,30.09,NNW,344,0.0,0.0,37,0.00,,SKC,0.00,VWS V15.00,2017-12-17 18:33:00,
2017-12-17 10:39:00,49.6,24.5,30.09,NNW,344,0.0,0.0,37,0.00,,SKC,0.00,VWS V15.00,2017-12-17 18:39:00,
2017-12-17 10:45:00,50.7,25.4,30.06,NW,310,0.0,0.0,37,0.00,,SKC,0.00,VWS V15.00,2017-12-17 18:45:00,
2017-12-17 10:49:00,51.3,25.9,30.06,NW,310,0.0,0.0,37,0.00,,SKC,0.00,VWS V15.00,2017-12-17 18:49:00,
2017-12-17 10:54:00,52.0,25.9,30.06,NNW,338,0.0,0.0,36,0.00,,SKC,0.00,VWS V15.00,2017-12-17 18:54:00,
2017-12-17 11:00:00,52.9,26.7,30.06,NNW,338,0.0,0.0,36,0.00,,SKC,0.00,VWS V15.00,2017-12-17 19:00:00,
2017-12-17 11:06:00,53.6,27.3,30.06,NNW,338,0.0,0.0,36,0.00,,SKC,0.00,VWS V15.00,2017-12-17 19:06:00,
2017-12-17 11:09:00,53.8,27.5,30.06,NNW,338,0.0,0.0,36,0.00,,SKC,0.00,VWS V15.00,2017-12-17 19:09:00,
2017-12-17 11:14:00,54.1,27.8,30.06,NNW,338,0.0,0.0,36,0.00,,SKC,0.00,VWS V15.00,2017-12-17 19:14:00,
2017-12-17 11:19:00,54.5,28.1,30.06,NNW,338,0.0,0.0,36,0.00,,SKC,0.00,VWS V15.00,2017-12-17 19:19:00,
2017-12-17 11:22:00,54.7,28.3,30.06,NNW,338,0.0,0.0,36,0.00,,SKC,0.00,VWS V15.00,2017-12-17 19:22:00,
2017-12-17 11:28:00,55.0,28.6,30.06,NW,322,7.2,7.2,36,0.00,,SKC,0.00,VWS V15.00,2017-12-17 19:28:00,
2017-12-17 11:33:00,55.6,28.4,30.06,West,280,0.0,0.0,35,0.00,,SKC,0.00,VWS V15.00,2017-12-17 19:33:00,
2017-12-17 11:36:00,55.8,28.5,30.06,West,280,0.0,0.0,35,0.00,,SKC,0.00,VWS V15.00,2017-12-17 19:36:00,
2017-12-17 11:41:00,56.1,28.9,30.06,West,280,0.0,0.0,35,0.00,,SKC,0.00,VWS V15.00,2017-12-17 19:41:00,
2017-12-17 11:46:00,56.5,29.2,30.06,West,280,0.0,0.0,35,0.00,,SKC,0.00,VWS V15.00,2017-12-17 19:46:00,
2017-12-17 11:51:00,56.7,29.3,30.06,West,280,0.0,0.0,35,0.00,,SKC,0.00,VWS V15.00,2017-12-17 19:51:00,
2017-12-17 11:53:00,56.7,29.3,30.06,West,280,0.0,0.0,35,0.00,,SKC,0.00,VWS V15.00,2017-12-17 19:53:00,
2017-12-17 11:58:00,56.3,29.0,30.06,WNW,282,0.0,0.0,35,0.00,,SKC,0.00,VWS V15.00,2017-12-17 19:58:00,
2017-12-17 12:01:00,56.1,28.9,30.06,WNW,300,0.0,0.0,35,0.00,,SKC,0.00,VWS V15.00,2017-12-17 20:01:00,
2017-12-17 12:06:00,55.9,28.7,30.06,ENE,69,0.0,0.0,35,0.00,,SKC,0.00,VWS V15.00,2017-12-17 20:06:00,
2017-12-17 12:11:00,55.9,28.7,30.06,ENE,69,0.0,0.0,35,0.00,,SKC,0.00,VWS V15.00,2017-12-17 20:11:00,
2017-12-17 12:16:00,56.1,28.9,30.06,North,0,0.0,0.0,35,0.00,,SKC,0.00,VWS V15.00,2017-12-17 20:16:00,
2017-12-17 12:21:00,56.3,29.0,30.06,North,0,0.0,0.0,35,0.00,,SKC,0.00,VWS V15.00,2017-12-17 20:21:00,
2017-12-17 12:27:00,56.7,29.3,30.06,NW,314,5.4,6.3,35,0.00,,SKC,0.00,VWS V15.00,2017-12-17 20:27:00,
2017-12-17 12:32:00,56.8,29.5,30.06,NNE,15,4.5,4.5,35,0.00,,SKC,0.00,VWS V15.00,2017-12-17 20:32:00,